createdAt,value
2017-08-30T00:01:25.445Z,686.25
2017-08-30T00:03:51.598Z,394.58
2017-08-30T00:06:17.769Z,789.05
2017-08-30T00:08:43.941Z,614.53
2017-08-30T00:11:10.109Z,574.80
2017-08-30T00:13:36.283Z,474.27
2017-08-30T00:16:02.454Z,601.15
2017-08-30T00:18:28.621Z,394.05
2017-08-30T00:20:54.788Z,917.17
2017-08-30T00:23:20.962Z,621.20
2017-08-30T00:25:47.123Z,558.45
2017-08-30T00:28:13.280Z,749.30
2017-08-30T00:30:39.440Z,499.35
2017-08-30T00:33:05.600Z,518.58
2017-08-30T00:35:31.769Z,627.72
2017-08-30T00:37:57.953Z,713.20
2017-08-30T00:40:24.111Z,365.17
2017-08-30T00:42:50.286Z,293.00
2017-08-30T00:45:16.456Z,277.13
2017-08-30T00:47:42.613Z,321.40
2017-08-30T00:50:08.786Z,824.15
2017-08-30T00:52:34.951Z,417.77
2017-08-30T00:55:01.103Z,474.33
2017-08-30T00:57:27.264Z,262.10
2017-08-30T00:59:53.449Z,352.30
2017-08-30T01:02:19.599Z,417.02
2017-08-30T01:04:45.762Z,245.23
2017-08-30T01:07:11.940Z,298.05
2017-08-30T01:09:38.120Z,400.87
2017-08-30T01:12:04.281Z,459.48
2017-08-30T01:14:30.460Z,319.10
2017-08-30T01:16:56.620Z,243.82
2017-08-30T01:19:22.800Z,253.20
2017-08-30T01:21:48.983Z,229.43
2017-08-30T01:24:15.150Z,211.32
2017-08-30T01:26:41.334Z,430.95
2017-08-30T01:29:07.491Z,1402.70
2017-08-30T01:31:33.659Z,343.85
2017-08-30T01:33:59.836Z,615.60
2017-08-30T01:36:26.012Z,1221.45
2017-08-30T01:38:52.194Z,397.60
2017-08-30T01:41:18.381Z,738.42
2017-08-30T01:43:44.545Z,1152.55
2017-08-30T01:46:10.710Z,1136.63
2017-08-30T01:48:36.893Z,1037.22
2017-08-30T01:51:03.067Z,707.72
2017-08-30T01:53:29.241Z,1028.32
2017-08-30T01:55:55.408Z,408.87
2017-08-30T01:58:21.561Z,529.50
2017-08-30T02:00:47.710Z,696.15
2017-08-30T02:03:13.864Z,796.78
2017-08-30T02:05:40.043Z,489.77
2017-08-30T02:08:06.209Z,702.83
2017-08-30T02:10:32.372Z,872.30
2017-08-30T02:12:58.528Z,213.77
2017-08-30T02:15:24.684Z,431.17
2017-08-30T02:17:50.852Z,217.75
2017-08-30T02:20:17.000Z,454.77
2017-08-30T02:22:43.145Z,130.98
2017-08-30T02:25:09.322Z,127.00
2017-08-30T02:27:35.491Z,146.50
2017-08-30T02:30:01.657Z,288.48
2017-08-30T02:32:27.834Z,198.60
2017-08-30T02:34:54.020Z,100.35
2017-08-30T02:37:20.176Z,42.78
2017-08-30T02:39:46.340Z,47.08
2017-08-30T02:42:12.490Z,60.22
2017-08-30T02:44:38.670Z,63.63
2017-08-30T02:47:04.841Z,60.30
2017-08-30T02:49:31.003Z,62.45
2017-08-30T02:51:57.166Z,55.45
2017-08-30T02:54:23.331Z,64.93
2017-08-30T02:56:49.497Z,94.93
2017-08-30T02:59:15.661Z,266.40
2017-08-30T03:01:41.819Z,122.57
2017-08-30T03:04:07.993Z,229.87
2017-08-30T03:06:34.149Z,93.65
2017-08-30T03:09:00.318Z,142.57
2017-08-30T03:11:26.488Z,118.30
2017-08-30T03:13:52.666Z,43.65
2017-08-30T03:16:18.832Z,43.60
2017-08-30T03:18:44.979Z,57.00
2017-08-30T03:21:11.131Z,51.45
2017-08-30T03:23:37.282Z,57.45
2017-08-30T03:26:03.448Z,51.05
2017-08-30T03:28:29.620Z,65.00
2017-08-30T03:30:55.794Z,35.30
2017-08-30T03:33:21.952Z,34.42
2017-08-30T03:35:48.128Z,18.65
2017-08-30T03:38:14.288Z,28.62
2017-08-30T03:40:40.462Z,19.23
2017-08-30T03:43:06.624Z,22.83
2017-08-30T03:45:32.784Z,22.37
2017-08-30T03:47:58.963Z,19.87
2017-08-30T03:50:25.143Z,19.58
2017-08-30T03:52:51.335Z,38.85
2017-08-30T03:55:17.506Z,32.60
2017-08-30T03:57:43.678Z,33.40
2017-08-30T04:00:10.911Z,24.37
2017-08-30T04:02:37.089Z,18.10
2017-08-30T04:05:03.234Z,17.52
2017-08-30T04:07:29.403Z,27.92
2017-08-30T04:09:55.567Z,38.00
2017-08-30T04:12:21.737Z,188.87
2017-08-30T04:14:48.841Z,544.30
2017-08-30T04:17:15.013Z,820.70
2017-08-30T04:19:41.174Z,234.57
2017-08-30T04:22:07.341Z,581.37
2017-08-30T04:24:33.519Z,841.08
2017-08-30T04:26:59.693Z,798.15
2017-08-30T04:29:25.867Z,950.72
2017-08-30T04:31:52.027Z,541.42
2017-08-30T04:34:18.219Z,78.62
2017-08-30T04:36:44.396Z,273.10
2017-08-30T04:39:10.565Z,645.50
2017-08-30T04:41:36.733Z,527.10
2017-08-30T04:44:02.900Z,260.08
2017-08-30T04:46:29.085Z,17.95
2017-08-30T04:48:55.256Z,21.08
2017-08-30T04:51:21.406Z,14.35
2017-08-30T04:53:47.569Z,23.50
2017-08-30T04:56:13.733Z,31.52
2017-08-30T04:58:39.888Z,24.73
2017-08-30T05:01:06.040Z,18.30
2017-08-30T05:03:32.195Z,18.12
2017-08-30T05:05:58.358Z,26.45
2017-08-30T05:08:24.540Z,34.35
2017-08-30T05:10:50.698Z,34.83
2017-08-30T05:13:16.860Z,36.67
2017-08-30T05:15:43.011Z,64.80
2017-08-30T05:18:09.200Z,38.28
2017-08-30T05:20:35.375Z,44.05
2017-08-30T05:23:01.541Z,49.83
2017-08-30T05:25:27.697Z,48.25
2017-08-30T05:27:53.865Z,51.22
2017-08-30T05:30:20.051Z,55.10
2017-08-30T05:32:46.198Z,44.42
2017-08-30T05:35:12.367Z,33.88
2017-08-30T05:37:38.533Z,30.67
2017-08-30T05:40:04.707Z,23.27
2017-08-30T05:42:30.864Z,25.33
2017-08-30T05:44:57.036Z,18.17
2017-08-30T05:47:23.192Z,17.37
2017-08-30T05:49:49.341Z,28.98
2017-08-30T05:52:15.498Z,26.08
2017-08-30T05:54:41.647Z,16.30
2017-08-30T05:57:07.805Z,14.02
2017-08-30T05:59:33.973Z,39.67
2017-08-30T06:02:00.134Z,29.10
2017-08-30T06:04:26.316Z,22.25
2017-08-30T06:06:52.482Z,21.65
2017-08-30T06:09:18.648Z,27.33
2017-08-30T06:11:44.811Z,13.98
2017-08-30T06:14:10.963Z,22.70
2017-08-30T06:16:37.126Z,28.42
2017-08-30T06:19:03.296Z,14.48
2017-08-30T06:21:29.446Z,11.25
2017-08-30T06:23:55.610Z,27.20
2017-08-30T06:26:21.772Z,12.88
2017-08-30T06:28:47.943Z,8.25
2017-08-30T06:31:14.094Z,9.23
2017-08-30T06:33:40.267Z,6.23
2017-08-30T06:36:06.444Z,5.50
2017-08-30T06:38:32.592Z,6.37
2017-08-30T06:40:58.738Z,8.33
2017-08-30T06:43:24.886Z,5.83
2017-08-30T06:45:51.055Z,6.20
2017-08-30T06:48:17.229Z,7.33
2017-08-30T06:50:43.467Z,11.80
2017-08-30T06:53:09.616Z,13.60
2017-08-30T06:55:35.789Z,11.57
2017-08-30T06:58:01.948Z,6.27
2017-08-30T07:00:28.104Z,7.67
2017-08-30T07:02:54.255Z,6.37
2017-08-30T07:05:20.419Z,6.07
2017-08-30T07:07:46.566Z,5.00
2017-08-30T07:10:12.729Z,11.57
2017-08-30T07:12:38.899Z,7.10
2017-08-30T07:15:05.053Z,9.53
2017-08-30T07:17:31.202Z,6.50
2017-08-30T07:19:57.359Z,12.77
2017-08-30T07:22:23.530Z,8.00
2017-08-30T07:24:49.684Z,8.10
2017-08-30T07:27:15.856Z,7.57
2017-08-30T07:29:42.012Z,11.90
2017-08-30T07:32:08.195Z,10.90
2017-08-30T07:34:34.362Z,16.13
2017-08-30T07:37:00.657Z,9.77
2017-08-30T07:39:26.819Z,8.00
2017-08-30T07:41:52.962Z,10.60
2017-08-30T07:44:19.147Z,8.07
2017-08-30T07:46:45.328Z,8.33
2017-08-30T07:49:11.528Z,8.60
2017-08-30T07:51:37.703Z,6.10
2017-08-30T07:54:03.867Z,12.60
2017-08-30T07:56:30.032Z,7.03
2017-08-30T07:58:56.210Z,7.60
2017-08-30T08:01:22.386Z,10.10
2017-08-30T08:03:48.538Z,6.00
2017-08-30T08:06:14.709Z,5.70
2017-08-30T08:08:40.883Z,7.30
2017-08-30T08:11:07.040Z,7.97
2017-08-30T08:13:33.211Z,6.50
2017-08-30T08:15:59.378Z,5.67
2017-08-30T08:18:25.548Z,10.20
2017-08-30T08:20:51.722Z,5.80
2017-08-30T08:23:17.871Z,7.63
2017-08-30T08:25:44.022Z,5.87
2017-08-30T08:28:10.189Z,6.30
2017-08-30T08:30:36.380Z,6.07
2017-08-30T08:33:02.540Z,6.60
2017-08-30T08:35:28.686Z,7.50
2017-08-30T08:37:54.860Z,7.37
2017-08-30T08:40:21.019Z,7.10
2017-08-30T08:42:47.168Z,6.20
2017-08-30T08:45:13.346Z,11.87
2017-08-30T08:47:39.532Z,10.93
2017-08-30T08:50:05.698Z,6.80
2017-08-30T08:52:31.859Z,7.43
2017-08-30T08:54:58.004Z,8.70
2017-08-30T08:57:24.155Z,8.40
2017-08-30T08:59:50.324Z,7.57
2017-08-30T09:02:16.573Z,6.80
2017-08-30T09:04:42.733Z,5.63
2017-08-30T09:07:08.909Z,5.33
2017-08-30T09:09:35.064Z,8.80
2017-08-30T09:12:01.239Z,6.40
2017-08-30T09:14:27.385Z,6.13
2017-08-30T09:16:53.550Z,6.07
2017-08-30T09:19:19.699Z,9.60
2017-08-30T09:21:45.877Z,7.07
2017-08-30T09:24:12.036Z,5.20
2017-08-30T09:26:38.213Z,6.90
2017-08-30T09:29:04.376Z,5.20
2017-08-30T09:31:30.546Z,7.10
2017-08-30T09:33:56.699Z,7.17
2017-08-30T09:36:22.864Z,7.13
2017-08-30T09:38:49.051Z,11.33
2017-08-30T09:41:15.203Z,14.03
2017-08-30T09:43:41.365Z,8.83
2017-08-30T09:46:07.523Z,5.37
2017-08-30T09:48:33.687Z,6.50
2017-08-30T09:50:59.866Z,5.17
2017-08-30T09:53:26.012Z,5.10
2017-08-30T09:55:52.179Z,5.20
2017-08-30T09:58:18.392Z,6.33
2017-08-30T10:00:44.542Z,4.13
2017-08-30T10:03:10.723Z,6.00
2017-08-30T10:05:36.914Z,5.23
2017-08-30T10:08:03.073Z,6.40
2017-08-30T10:10:29.230Z,5.70
2017-08-30T10:12:55.407Z,4.67
2017-08-30T10:15:21.587Z,5.90
2017-08-30T10:17:47.745Z,4.33
2017-08-30T10:20:13.893Z,6.83
2017-08-30T10:22:40.057Z,8.17
2017-08-30T10:25:06.216Z,4.10
2017-08-30T10:27:32.390Z,5.10
2017-08-30T10:29:58.549Z,5.87
2017-08-30T10:32:24.718Z,5.83
2017-08-30T10:34:50.878Z,4.80
2017-08-30T10:37:17.044Z,6.03
2017-08-30T10:39:43.218Z,10.73
2017-08-30T10:42:09.381Z,4.70
2017-08-30T10:44:35.545Z,4.13
2017-08-30T10:47:01.705Z,5.87
2017-08-30T10:49:27.859Z,5.23
2017-08-30T10:51:54.020Z,5.97
2017-08-30T10:54:20.195Z,6.20
2017-08-30T10:56:46.366Z,17.67
2017-08-30T10:59:12.535Z,8.07
2017-08-30T11:01:38.686Z,5.10
2017-08-30T11:04:04.838Z,7.87
2017-08-30T11:06:30.983Z,4.90
2017-08-30T11:08:57.139Z,7.10
2017-08-30T11:11:23.297Z,11.30
2017-08-30T11:13:49.456Z,6.83
2017-08-30T11:16:15.617Z,5.73
2017-08-30T11:18:41.788Z,5.20
2017-08-30T11:21:07.951Z,5.57
2017-08-30T11:23:38.052Z,5.90
2017-08-30T11:26:04.224Z,4.43
2017-08-30T11:28:30.391Z,8.17
2017-08-30T11:30:56.556Z,5.10
2017-08-30T11:33:22.728Z,5.70
2017-08-30T11:35:48.898Z,4.13
2017-08-30T11:38:15.062Z,5.70
2017-08-30T11:40:41.229Z,6.37
2017-08-30T11:43:07.393Z,5.23
2017-08-30T11:45:33.549Z,7.80
2017-08-30T11:47:59.706Z,4.87
2017-08-30T11:50:25.876Z,9.83
2017-08-30T11:52:52.045Z,7.63
2017-08-30T11:55:18.210Z,5.07
2017-08-30T11:57:44.371Z,8.07
2017-08-30T12:00:10.552Z,5.43
2017-08-30T12:02:36.711Z,6.10
2017-08-30T12:05:02.877Z,6.13
2017-08-30T12:07:29.040Z,5.07
2017-08-30T12:09:55.207Z,5.20
2017-08-30T12:12:21.364Z,4.90
2017-08-30T12:14:47.547Z,6.20
2017-08-30T12:17:13.711Z,4.80
2017-08-30T12:19:39.869Z,7.10
2017-08-30T12:22:06.028Z,5.87
2017-08-30T12:24:32.190Z,5.07
2017-08-30T12:26:58.410Z,7.90
2017-08-30T12:29:24.563Z,4.70
2017-08-30T12:31:50.714Z,5.00
2017-08-30T12:34:16.877Z,4.13
2017-08-30T12:36:43.021Z,4.80
2017-08-30T12:39:09.178Z,8.53
2017-08-30T12:41:35.352Z,4.70
2017-08-30T12:44:01.541Z,5.77
2017-08-30T12:46:27.704Z,6.00
2017-08-30T12:48:53.877Z,5.03
2017-08-30T12:51:20.048Z,3.97
2017-08-30T12:53:46.213Z,6.23
2017-08-30T12:56:12.382Z,8.47
2017-08-30T12:58:38.539Z,4.47
2017-08-30T13:01:04.698Z,4.50
2017-08-30T13:03:30.896Z,4.67
2017-08-30T13:05:57.059Z,5.27
2017-08-30T13:08:23.216Z,4.60
2017-08-30T13:10:49.401Z,4.77
2017-08-30T13:13:15.586Z,4.37
2017-08-30T13:15:41.747Z,7.20
2017-08-30T13:18:07.902Z,10.20
2017-08-30T13:20:34.076Z,4.67
2017-08-30T13:23:00.237Z,8.17
2017-08-30T13:25:26.448Z,5.47
2017-08-30T13:27:52.608Z,5.67
2017-08-30T13:30:18.774Z,5.27
2017-08-30T13:32:44.971Z,5.13
2017-08-30T13:35:11.147Z,5.90
2017-08-30T13:37:37.295Z,7.70
2017-08-30T13:40:03.455Z,5.57
2017-08-30T13:42:29.598Z,7.63
2017-08-30T13:44:55.763Z,6.60
2017-08-30T13:47:21.939Z,5.97
2017-08-30T13:49:48.119Z,4.53
2017-08-30T13:52:14.275Z,4.63
2017-08-30T13:54:40.455Z,6.57
2017-08-30T13:57:06.626Z,5.63
2017-08-30T13:59:32.796Z,6.30
2017-08-30T14:01:58.964Z,10.03
2017-08-30T14:04:25.132Z,11.30
2017-08-30T14:06:51.328Z,5.00
2017-08-30T14:09:17.523Z,4.87
2017-08-30T14:11:43.696Z,5.00
2017-08-30T14:14:09.857Z,8.50
2017-08-30T14:16:36.024Z,8.83
2017-08-30T14:19:02.183Z,15.10
2017-08-30T14:21:28.352Z,179.47
2017-08-30T14:23:54.535Z,150.47
2017-08-30T14:26:20.738Z,65.83
2017-08-30T14:28:46.901Z,86.50
2017-08-30T14:31:13.053Z,115.30
2017-08-30T14:33:39.231Z,14.83
2017-08-30T14:36:05.407Z,134.40
2017-08-30T14:38:31.562Z,84.80
2017-08-30T14:40:57.731Z,23.00
2017-08-30T14:43:23.900Z,37.60
2017-08-30T14:45:50.070Z,14.63
2017-08-30T14:48:16.210Z,16.70
2017-08-30T14:50:42.382Z,4.80
2017-08-30T14:53:08.546Z,11.60
2017-08-30T14:55:34.740Z,11.67
2017-08-30T14:58:00.921Z,11.33
2017-08-30T15:00:27.083Z,10.00
2017-08-30T15:02:53.261Z,8.23
2017-08-30T15:05:19.439Z,9.73
2017-08-30T15:07:45.610Z,7.97
2017-08-30T15:10:11.763Z,5.57
2017-08-30T15:12:37.943Z,5.50
2017-08-30T15:15:04.127Z,6.23
2017-08-30T15:17:30.308Z,5.60
2017-08-30T15:19:56.487Z,10.40
2017-08-30T15:22:22.664Z,6.70
2017-08-30T15:24:48.834Z,9.20
2017-08-30T15:27:15.001Z,4.80
2017-08-30T15:29:41.161Z,6.67
2017-08-30T15:32:07.324Z,7.70
2017-08-30T15:34:33.490Z,5.50
2017-08-30T15:36:59.673Z,6.93
2017-08-30T15:39:25.851Z,5.77
2017-08-30T15:41:52.036Z,8.37
2017-08-30T15:44:18.210Z,13.27
2017-08-30T15:46:44.387Z,6.90
2017-08-30T15:49:10.562Z,9.00
2017-08-30T15:51:36.725Z,6.87
2017-08-30T15:54:02.881Z,9.90
2017-08-30T15:56:29.031Z,11.20
2017-08-30T15:58:55.214Z,7.03
2017-08-30T16:01:21.383Z,20.50
2017-08-30T16:03:47.596Z,15.00
2017-08-30T16:06:13.775Z,11.03
2017-08-30T16:08:39.946Z,14.03
2017-08-30T16:11:06.146Z,8.27
2017-08-30T16:13:32.323Z,10.20
2017-08-30T16:15:58.499Z,13.20
2017-08-30T16:18:24.672Z,9.07
2017-08-30T16:20:50.831Z,14.43
2017-08-30T16:23:16.986Z,11.27
2017-08-30T16:25:43.158Z,7.07
2017-08-30T16:28:09.324Z,8.90
2017-08-30T16:30:35.504Z,10.73
2017-08-30T16:33:01.676Z,16.20
2017-08-30T16:35:27.837Z,20.43
2017-08-30T16:37:53.992Z,9.87
2017-08-30T16:40:20.169Z,13.93
2017-08-30T16:42:46.342Z,9.50
2017-08-30T16:45:12.514Z,7.47
2017-08-30T16:47:38.678Z,15.13
2017-08-30T16:50:04.849Z,8.97
2017-08-30T16:52:31.028Z,13.53
2017-08-30T16:54:57.206Z,14.23
2017-08-30T16:57:23.440Z,12.70
2017-08-30T16:59:52.032Z,17.92
2017-08-30T17:02:19.232Z,10.60
2017-08-30T17:04:47.119Z,8.90
2017-08-30T17:07:13.382Z,10.80
2017-08-30T17:09:39.543Z,18.95
2017-08-30T17:12:05.729Z,9.70
2017-08-30T17:14:31.915Z,14.87
2017-08-30T17:16:58.084Z,17.23
2017-08-30T17:19:24.242Z,10.55
2017-08-30T17:21:50.403Z,11.32
2017-08-30T17:24:16.585Z,13.13
2017-08-30T17:26:42.759Z,13.13
2017-08-30T17:29:08.925Z,13.25
2017-08-30T17:31:35.089Z,10.15
2017-08-30T17:34:01.252Z,7.65
2017-08-30T17:36:27.422Z,9.98
2017-08-30T17:38:53.605Z,15.82
2017-08-30T17:41:19.768Z,14.07
2017-08-30T17:43:45.946Z,14.25
2017-08-30T17:46:12.138Z,15.43
2017-08-30T17:48:38.349Z,10.13
2017-08-30T17:51:04.513Z,11.10
2017-08-30T17:53:30.680Z,13.70
2017-08-30T17:55:56.844Z,12.98
2017-08-30T17:58:23.016Z,14.80
2017-08-30T18:00:49.185Z,13.73
2017-08-30T18:03:15.363Z,17.65
2017-08-30T18:05:41.527Z,11.48
2017-08-30T18:08:07.716Z,13.57
2017-08-30T18:10:33.883Z,13.98
2017-08-30T18:13:00.061Z,19.40
2017-08-30T18:15:26.218Z,16.12
2017-08-30T18:17:52.395Z,14.85
2017-08-30T18:20:18.590Z,13.10
2017-08-30T18:22:44.775Z,10.85
2017-08-30T18:25:10.949Z,14.45
2017-08-30T18:27:37.122Z,16.98
2017-08-30T18:30:03.311Z,17.75
2017-08-30T18:32:29.478Z,14.75
2017-08-30T18:34:55.650Z,17.55
2017-08-30T18:37:21.838Z,13.27
2017-08-30T18:39:48.014Z,20.20
2017-08-30T18:42:14.201Z,17.60
2017-08-30T18:44:40.374Z,13.38
2017-08-30T18:47:06.592Z,12.48
2017-08-30T18:49:32.762Z,10.38
2017-08-30T18:51:58.942Z,16.23
2017-08-30T18:54:25.118Z,13.43
2017-08-30T18:56:51.288Z,17.17
2017-08-30T18:59:17.441Z,14.68
2017-08-30T19:01:43.618Z,15.15
2017-08-30T19:04:09.813Z,17.08
2017-08-30T19:06:35.989Z,17.92
2017-08-30T19:09:02.142Z,13.30
2017-08-30T19:11:28.303Z,12.98
2017-08-30T19:13:54.489Z,16.27
2017-08-30T19:16:20.673Z,11.85
2017-08-30T19:18:47.057Z,11.52
2017-08-30T19:21:13.218Z,14.80
2017-08-30T19:23:39.380Z,14.18
2017-08-30T19:26:05.535Z,15.60
2017-08-30T19:28:31.687Z,15.05
2017-08-30T19:30:57.861Z,16.73
2017-08-30T19:33:24.039Z,13.82
2017-08-30T19:35:50.203Z,15.20
2017-08-30T19:38:16.357Z,14.35
2017-08-30T19:40:42.669Z,19.37
2017-08-30T19:43:08.849Z,17.35
2017-08-30T19:45:35.013Z,16.98
2017-08-30T19:48:01.171Z,24.65
2017-08-30T19:50:27.332Z,24.48
2017-08-30T19:52:53.508Z,19.73
2017-08-30T19:55:19.682Z,13.02
2017-08-30T19:57:45.839Z,26.17
2017-08-30T20:00:12.014Z,24.00
2017-08-30T20:02:38.166Z,19.10
2017-08-30T20:05:04.341Z,29.55
2017-08-30T20:07:30.516Z,23.90
2017-08-30T20:09:56.681Z,25.42
2017-08-30T20:12:22.836Z,28.33
2017-08-30T20:14:48.992Z,20.08
2017-08-30T20:17:15.165Z,20.60
2017-08-30T20:19:41.330Z,12.77
2017-08-30T20:22:07.483Z,14.95
2017-08-30T20:24:33.655Z,19.58
2017-08-30T20:26:59.829Z,15.35
2017-08-30T20:29:26.015Z,14.20
2017-08-30T20:31:52.178Z,15.88
2017-08-30T20:34:18.363Z,13.95
2017-08-30T20:36:44.547Z,16.27
2017-08-30T20:39:10.706Z,17.42
2017-08-30T20:41:36.889Z,21.12
2017-08-30T20:44:03.070Z,25.80
2017-08-30T20:46:29.257Z,16.92
2017-08-30T20:48:55.438Z,18.48
2017-08-30T20:51:21.615Z,15.13
2017-08-30T20:53:47.880Z,17.27
2017-08-30T20:56:14.115Z,18.05
2017-08-30T20:58:40.318Z,20.02
2017-08-30T21:01:06.543Z,25.40
2017-08-30T21:03:32.806Z,17.15
2017-08-30T21:05:59.016Z,17.10
2017-08-30T21:08:25.254Z,29.10
2017-08-30T21:10:51.468Z,18.70
2017-08-30T21:13:17.739Z,17.83
2017-08-30T21:15:43.925Z,17.33
2017-08-30T21:18:10.187Z,15.20
2017-08-30T21:20:36.441Z,15.00
2017-08-30T21:23:02.641Z,14.02
2017-08-30T21:25:28.865Z,15.35
2017-08-30T21:27:55.098Z,21.60
2017-08-30T21:30:21.320Z,20.35
2017-08-30T21:32:47.562Z,13.95
2017-08-30T21:35:13.788Z,19.90
2017-08-30T21:37:40.013Z,13.57
2017-08-30T21:40:06.245Z,14.63
2017-08-30T21:42:32.471Z,22.15
2017-08-30T21:44:58.740Z,14.55
2017-08-30T21:47:24.931Z,23.95
2017-08-30T21:49:51.156Z,16.50
2017-08-30T21:52:17.400Z,14.10
2017-08-30T21:54:43.630Z,20.12
2017-08-30T21:57:09.815Z,21.52
2017-08-30T21:59:36.104Z,19.25
2017-08-30T22:02:02.324Z,18.98
2017-08-30T22:04:28.522Z,17.62
2017-08-30T22:06:54.760Z,20.08
2017-08-30T22:09:21.000Z,18.58
2017-08-30T22:11:47.226Z,17.45
2017-08-30T22:14:13.479Z,26.90
2017-08-30T22:16:39.688Z,21.00
2017-08-30T22:19:05.918Z,23.48
2017-08-30T22:21:32.131Z,35.40
2017-08-30T22:23:58.302Z,16.08
2017-08-30T22:26:24.514Z,24.50
2017-08-30T22:28:50.725Z,28.08
2017-08-30T22:31:16.982Z,22.23
2017-08-30T22:33:43.203Z,20.20
2017-08-30T22:36:09.428Z,21.23
2017-08-30T22:38:35.630Z,18.05
2017-08-30T22:41:01.867Z,23.65
2017-08-30T22:43:28.103Z,18.67
2017-08-30T22:45:54.341Z,24.92
2017-08-30T22:48:20.575Z,21.00
2017-08-30T22:50:46.792Z,20.58
2017-08-30T22:53:13.020Z,21.00
2017-08-30T22:55:39.269Z,25.33
2017-08-30T22:58:05.506Z,15.95
2017-08-30T23:00:31.781Z,22.33
2017-08-30T23:02:58.065Z,18.02
2017-08-30T23:05:24.291Z,23.30
2017-08-30T23:07:50.511Z,20.85
2017-08-30T23:10:16.742Z,24.00
2017-08-30T23:12:42.973Z,18.20
2017-08-30T23:15:09.193Z,19.73
2017-08-30T23:17:35.417Z,16.10
2017-08-30T23:20:01.655Z,23.90
2017-08-30T23:22:27.887Z,19.83
2017-08-30T23:24:54.119Z,18.08
2017-08-30T23:27:20.547Z,15.55
2017-08-30T23:29:46.816Z,18.58
2017-08-30T23:32:13.004Z,15.23
2017-08-30T23:34:39.255Z,14.70
2017-08-30T23:37:05.459Z,18.45
2017-08-30T23:39:31.689Z,17.90
2017-08-30T23:41:57.924Z,23.33
2017-08-30T23:44:24.143Z,19.30
2017-08-30T23:46:50.389Z,18.12
2017-08-30T23:49:16.617Z,16.58
2017-08-30T23:51:42.842Z,15.07
2017-08-30T23:54:09.067Z,15.48
2017-08-30T23:56:35.296Z,17.25
2017-08-30T23:59:01.575Z,17.10
